Time;durP1;ratioP1;P1;durP2;ratioP2;P2;SDS_P1;SDS_P2;PMS_P1;PMS_P2;Temp;Humidity;BMP_temperature;BMP_pressure;BME280_temperature;BME280_humidity;BME280_pressure;Samples;Min_cycle;Max_cycle;Signal;HPM_P1;HPM_P2
2022/05/31 00:01:06;;;;;;;;;;;;;;;12.34;54.81;100922.69;5024751;28;19960;-77
2022/05/31 00:03:31;;;;;;;;;;;;;;;12.29;54.89;100925.44;5036887;28;19929;-77
2022/05/31 00:05:56;;;;;;;;;;;;;;;12.29;54.65;100924.56;5029366;28;20374;-77
2022/05/31 00:08:21;;;;;;;;;;;;;;;12.25;55.01;100930.75;5046436;28;19978;-76
2022/05/31 00:10:47;;;;;;;;;;;;;;;12.32;54.88;100924.50;5044039;28;20378;-77
2022/05/31 00:13:12;;;;;;;;;;;;;;;12.33;54.57;100927.06;5043977;28;19979;-77
2022/05/31 00:15:37;;;;;;;;;;;;;;;12.26;54.34;100925.50;5034837;28;20287;-76
2022/05/31 00:18:03;;;;;;;;;;;;;;;12.26;54.93;100929.84;5030470;28;20602;-77
2022/05/31 00:20:29;;;;;;;;;;;;;;;12.17;55.26;100928.34;5026996;28;19925;-77
2022/05/31 00:22:54;;;;;;;;;;;;;;;12.23;54.71;100924.72;5031184;28;19925;-77
2022/05/31 00:25:20;;;;;;;;;;;;;;;12.17;54.82;100923.13;5033654;28;19928;-77
2022/05/31 00:27:45;;;;;;;;;;;;;;;12.22;55.13;100926.47;5042156;28;20422;-77
2022/05/31 00:30:11;;;;;;;;;;;;;;;12.23;55.21;100922.13;5034861;28;20362;-77
2022/05/31 00:32:39;;;;;;;;;;;;;;;12.23;55.49;100919.50;5028644;28;19919;-77
2022/05/31 00:35:09;;;;;;;;;;;;;;;12.25;55.49;100918.56;5024093;28;19921;-77
2022/05/31 00:37:35;;;;;;;;;;;;;;;12.13;55.51;100920.66;5023335;28;19929;-77
2022/05/31 00:40:00;;;;;;;;;;;;;;;12.13;55.73;100918.88;5025343;28;19921;-77
2022/05/31 00:42:26;;;;;;;;;;;;;;;12.19;55.25;100916.13;5031451;28;19913;-77
2022/05/31 00:44:51;;;;;;;;;;;;;;;12.21;55.42;100921.31;5058309;28;19921;-77
2022/05/31 00:47:18;;;;;;;;;;;;;;;12.27;55.98;100914.19;5037097;28;20632;-77
2022/05/31 00:50:02;;;;;;;;;;;;;;;12.09;55.53;100910.31;5024192;28;19976;-77
2022/05/31 00:52:29;;;;;;;;;;;;;;;12.20;55.06;100909.16;5018907;28;19964;-76
2022/05/31 00:55:00;;;;;;;;;;;;;;;12.27;55.54;100909.00;5015934;28;19932;-77
2022/05/31 00:57:26;;;;;;;;;;;;;;;12.13;54.90;100901.50;5029249;28;19921;-77
2022/05/31 00:59:53;;;;;;;;;;;;;;;12.13;54.88;100900.66;5040929;28;20274;-77
2022/05/31 01:02:19;;;;;;;;;;;;;;;12.34;55.26;100907.06;5022195;28;19921;-76
2022/05/31 01:04:48;;;;;;;;;;;;;;;12.33;54.49;100908.84;5026161;28;20023;-76
2022/05/31 01:07:14;;;;;;;;;;;;;;;12.32;55.78;100908.84;5040986;28;20015;-76
2022/05/31 01:09:39;;;;;;;;;;;;;;;12.25;55.81;100910.75;5024357;28;20578;-76
2022/05/31 01:12:05;;;;;;;;;;;;;;;12.15;55.31;100913.66;5040359;28;19955;-76
2022/05/31 01:14:31;;;;;;;;;;;;;;;12.16;55.71;100912.72;5033928;28;19925;-76
2022/05/31 01:16:58;;;;;;;;;;;;;;;12.09;55.79;100907.72;5030794;28;20004;-77
2022/05/31 01:22:07;;;;;;;;;;;;;;;12.15;55.83;100911.03;5028024;28;19972;-77
2022/05/31 01:24:34;;;;;;;;;;;;;;;12.06;55.87;100910.38;5029799;28;19948;-77
2022/05/31 01:27:14;;;;;;;;;;;;;;;11.99;56.02;100906.22;5028241;28;20321;-77
2022/05/31 01:29:40;;;;;;;;;;;;;;;12.13;55.44;100910.25;5027755;28;20405;-76
2022/05/31 01:32:11;;;;;;;;;;;;;;;12.16;55.99;100904.91;5028045;28;20574;-76
2022/05/31 01:34:55;;;;;;;;;;;;;;;12.00;54.80;100901.88;5021810;28;19956;-76
2022/05/31 01:37:22;;;;;;;;;;;;;;;11.99;54.52;100898.41;5028761;28;19921;-76
2022/05/31 01:39:50;;;;;;;;;;;;;;;12.03;55.27;100901.78;5025307;28;19925;-77
2022/05/31 01:42:23;;;;;;;;;;;;;;;12.03;55.38;100893.97;5029792;28;20011;-77
2022/05/31 01:44:50;;;;;;;;;;;;;;;11.91;55.16;100899.50;5025279;28;19949;-77
2022/05/31 01:47:16;;;;;;;;;;;;;;;11.94;55.44;100894.22;5033655;28;20555;-77
2022/05/31 01:49:44;;;;;;;;;;;;;;;11.99;55.93;100889.72;5021082;28;20055;-77
2022/05/31 01:52:10;;;;;;;;;;;;;;;12.04;56.03;100893.06;5036595;28;19917;-77
2022/05/31 01:54:36;;;;;;;;;;;;;;;12.03;56.46;100888.78;5021494;28;19933;-77
2022/05/31 01:57:03;;;;;;;;;;;;;;;11.99;56.71;100889.72;5036561;28;19921;-77
2022/05/31 01:59:30;;;;;;;;;;;;;;;11.92;55.97;100883.81;5033195;28;19971;-77
2022/05/31 02:01:56;;;;;;;;;;;;;;;11.95;56.03;100883.75;5034088;28;19932;-77
2022/05/31 02:04:21;;;;;;;;;;;;;;;12.01;55.38;100882.72;5017371;28;19925;-77
2022/05/31 02:06:47;;;;;;;;;;;;;;;11.94;55.61;100878.59;5028322;28;20028;-77
2022/05/31 02:09:13;;;;;;;;;;;;;;;11.81;55.82;100878.03;5028092;28;19932;-77
2022/05/31 02:11:39;;;;;;;;;;;;;;;11.99;55.37;100876.72;5039065;28;19923;-77
2022/05/31 02:14:05;;;;;;;;;;;;;;;11.95;55.44;100868.13;5042505;28;19921;-76
2022/05/31 02:16:30;;;;;;;;;;;;;;;11.95;54.20;100864.66;5037737;28;19921;-77
2022/05/31 02:21:39;;;;;;;;;;;;;;;12.07;55.19;100864.34;5026737;28;19928;-77
2022/05/31 02:24:07;;;;;;;;;;;;;;;12.12;54.57;100857.28;5028752;28;19925;-77
2022/05/31 02:26:32;;;;;;;;;;;;;;;12.05;54.75;100863.53;5032466;28;19925;-77
2022/05/31 02:28:57;;;;;;;;;;;;;;;12.00;55.30;100863.69;5036251;28;19932;-77
2022/05/31 02:31:23;;;;;;;;;;;;;;;11.99;55.53;100858.50;5039344;28;19969;-77
2022/05/31 02:33:48;;;;;;;;;;;;;;;11.93;55.46;100859.50;5030954;28;19921;-77
2022/05/31 02:36:13;;;;;;;;;;;;;;;11.86;55.63;100851.91;5039203;28;19921;-77
2022/05/31 02:38:40;;;;;;;;;;;;;;;11.75;56.20;100859.09;5031414;28;19921;-77
2022/05/31 02:41:06;;;;;;;;;;;;;;;11.79;56.64;100861.59;5024984;28;20321;-77
2022/05/31 02:43:31;;;;;;;;;;;;;;;11.82;56.47;100858.06;5011431;28;19928;-76
2022/05/31 02:45:58;;;;;;;;;;;;;;;11.86;56.58;100852.72;5028693;28;20011;-77
2022/05/31 02:48:24;;;;;;;;;;;;;;;11.76;56.68;100859.06;5027859;28;19954;-77
2022/05/31 02:50:50;;;;;;;;;;;;;;;11.84;56.60;100844.13;5028684;28;20356;-77
2022/05/31 02:53:15;;;;;;;;;;;;;;;11.80;55.76;100842.47;5029098;28;20555;-77
2022/05/31 02:55:41;;;;;;;;;;;;;;;11.72;55.77;100840.94;5033425;28;19924;-77
2022/05/31 02:58:06;;;;;;;;;;;;;;;11.73;55.72;100842.66;5029429;28;19917;-77
2022/05/31 03:00:31;;;;;;;;;;;;;;;11.64;56.63;100838.56;5030321;28;19925;-77
2022/05/31 03:02:57;;;;;;;;;;;;;;;11.79;55.86;100843.38;5029188;28;19936;-77
2022/05/31 03:05:22;;;;;;;;;;;;;;;11.71;55.93;100840.09;5029548;28;20563;-77
2022/05/31 03:07:48;;;;;;;;;;;;;;;11.88;54.68;100840.56;5026431;28;19921;-77
2022/05/31 03:10:13;;;;;;;;;;;;;;;11.80;55.85;100839.03;5022312;28;19947;-77
2022/05/31 03:12:38;;;;;;;;;;;;;;;11.83;55.89;100833.75;5024480;28;20314;-77
2022/05/31 03:15:06;;;;;;;;;;;;;;;11.67;56.32;100835.88;5029943;28;19929;-77
2022/05/31 03:17:35;;;;;;;;;;;;;;;11.70;56.34;100837.53;5026890;28;19932;-77
2022/05/31 03:20:03;;;;;;;;;;;;;;;11.77;55.64;100834.75;5027054;28;19932;-76
2022/05/31 03:22:32;;;;;;;;;;;;;;;11.79;56.13;100842.53;5027797;28;19929;-77
2022/05/31 03:25:00;;;;;;;;;;;;;;;11.78;55.95;100839.06;5037842;28;19917;-77
2022/05/31 03:27:26;;;;;;;;;;;;;;;11.77;56.00;100841.72;5030169;28;19960;-77
2022/05/31 03:29:53;;;;;;;;;;;;;;;11.79;56.09;100845.97;5027820;28;19921;-77
2022/05/31 03:32:19;;;;;;;;;;;;;;;11.86;55.73;100836.28;5029727;28;19921;-77
2022/05/31 03:34:45;;;;;;;;;;;;;;;11.82;55.89;100837.25;5027066;28;19921;-77
2022/05/31 03:37:10;;;;;;;;;;;;;;;11.75;55.95;100835.66;5019741;28;20301;-77
2022/05/31 03:39:35;;;;;;;;;;;;;;;11.81;55.57;100835.53;5014308;28;20075;-77
2022/05/31 03:42:01;;;;;;;;;;;;;;;11.83;56.28;100842.41;5025261;28;20024;-77
2022/05/31 03:44:26;;;;;;;;;;;;;;;11.86;55.60;100841.50;5019727;28;19925;-77
2022/05/31 03:46:51;;;;;;;;;;;;;;;11.85;56.19;100835.41;5019489;28;20043;-77
2022/05/31 03:49:17;;;;;;;;;;;;;;;11.90;56.14;100837.91;5026719;28;19933;-77
2022/05/31 03:51:42;;;;;;;;;;;;;;;11.89;56.00;100836.22;5033259;28;20411;-78
2022/05/31 03:54:08;;;;;;;;;;;;;;;11.81;56.37;100840.72;5022415;28;19956;-77
2022/05/31 03:56:35;;;;;;;;;;;;;;;11.65;56.70;100837.63;5028272;28;20329;-78
2022/05/31 03:59:00;;;;;;;;;;;;;;;11.75;56.34;100833.06;5025148;28;19925;-78
2022/05/31 04:01:25;;;;;;;;;;;;;;;11.73;56.21;100835.72;5030723;28;19928;-78
2022/05/31 04:03:51;;;;;;;;;;;;;;;11.64;55.40;100827.28;5041606;28;19972;-78
2022/05/31 04:06:16;;;;;;;;;;;;;;;11.59;56.19;100829.16;5020843;28;19930;-78
2022/05/31 04:08:41;;;;;;;;;;;;;;;11.50;56.14;100828.44;5026358;28;19971;-78
2022/05/31 04:11:06;;;;;;;;;;;;;;;11.66;56.35;100823.75;5024745;28;20016;-78
2022/05/31 04:13:32;;;;;;;;;;;;;;;11.71;55.96;100823.66;5023086;28;20342;-78
2022/05/31 04:16:11;;;;;;;;;;;;;;;11.68;55.83;100827.16;5036589;28;19924;-78
2022/05/31 04:18:37;;;;;;;;;;;;;;;11.73;56.13;100825.31;5018607;28;19921;-78
2022/05/31 04:21:03;;;;;;;;;;;;;;;11.77;56.57;100833.91;5027613;28;19964;-78
2022/05/31 04:26:13;;;;;;;;;;;;;;;11.70;56.30;100825.38;5034627;28;19928;-78
2022/05/31 04:28:39;;;;;;;;;;;;;;;11.70;56.23;100824.53;5026024;28;19929;-78
2022/05/31 04:31:04;;;;;;;;;;;;;;;11.71;55.81;100823.66;5040536;28;19925;-78
2022/05/31 04:33:29;;;;;;;;;;;;;;;11.80;55.57;100826.03;5027579;28;20000;-78
2022/05/31 04:35:59;;;;;;;;;;;;;;;11.67;56.27;100816.78;5018174;28;19999;-78
2022/05/31 04:38:24;;;;;;;;;;;;;;;11.86;55.88;100824.09;5027738;28;19921;-78
2022/05/31 04:40:49;;;;;;;;;;;;;;;11.87;56.12;100819.75;5026689;28;20433;-78
2022/05/31 04:43:15;;;;;;;;;;;;;;;11.95;55.90;100823.88;5023191;28;19925;-78
2022/05/31 04:45:40;;;;;;;;;;;;;;;11.96;56.02;100828.19;5028330;28;19921;-78
2022/05/31 04:48:05;;;;;;;;;;;;;;;12.08;56.18;100829.63;5030307;28;20382;-78
2022/05/31 04:50:30;;;;;;;;;;;;;;;11.97;55.93;100835.13;5028736;28;19971;-78
2022/05/31 04:52:56;;;;;;;;;;;;;;;11.86;56.01;100831.06;5024436;28;19932;-78
2022/05/31 04:55:21;;;;;;;;;;;;;;;11.79;56.55;100832.13;5015177;28;19976;-78
2022/05/31 04:57:46;;;;;;;;;;;;;;;11.94;56.37;100832.59;5060642;28;20024;-78
2022/05/31 05:00:13;;;;;;;;;;;;;;;12.04;56.58;100835.78;5023753;28;19969;-78
2022/05/31 05:02:38;;;;;;;;;;;;;;;12.09;56.38;100837.41;5027593;28;20024;-78
2022/05/31 05:05:03;;;;;;;;;;;;;;;12.07;56.72;100830.50;5028715;28;20020;-78
2022/05/31 05:07:30;;;;;;;;;;;;;;;12.00;56.38;100832.44;5016031;28;20021;-78
2022/05/31 05:09:55;;;;;;;;;;;;;;;12.02;55.95;100834.97;5031694;28;19929;-78
2022/05/31 05:12:20;;;;;;;;;;;;;;;11.90;56.80;100830.94;5035031;28;19971;-78
2022/05/31 05:14:47;;;;;;;;;;;;;;;11.87;57.09;100832.75;5043292;28;20386;-78
2022/05/31 05:17:13;;;;;;;;;;;;;;;11.88;57.89;100819.72;5032129;28;20608;-78
2022/05/31 05:19:38;;;;;;;;;;;;;;;11.90;57.92;100811.88;5025629;28;19921;-78
2022/05/31 05:22:03;;;;;;;;;;;;;;;11.81;57.62;100810.34;5043530;28;19921;-78
2022/05/31 05:24:28;;;;;;;;;;;;;;;12.01;57.61;100805.47;5049973;28;20624;-78
2022/05/31 05:26:54;;;;;;;;;;;;;;;12.06;57.34;100815.78;5051356;28;19920;-78
2022/05/31 05:32:07;;;;;;;;;;;;;;;11.90;57.99;100815.31;5031743;28;19951;-78
2022/05/31 05:34:32;;;;;;;;;;;;;;;11.99;58.07;100815.09;5024388;28;19921;-78
2022/05/31 05:36:57;;;;;;;;;;;;;;;11.95;58.68;100823.00;5034793;28;20398;-78
2022/05/31 05:39:22;;;;;;;;;;;;;;;11.97;58.34;100818.63;5031637;28;19933;-78
2022/05/31 05:41:49;;;;;;;;;;;;;;;12.03;58.22;100814.13;5058184;28;20393;-78
2022/05/31 05:44:15;;;;;;;;;;;;;;;12.01;58.37;100818.50;5019966;28;20339;-78
2022/05/31 05:46:40;;;;;;;;;;;;;;;11.99;57.63;100824.66;5014581;28;20016;-78
2022/05/31 05:49:06;;;;;;;;;;;;;;;11.85;58.67;100825.00;5021787;28;19929;-78
2022/05/31 05:51:32;;;;;;;;;;;;;;;11.98;57.48;100821.19;5017239;28;19925;-78
2022/05/31 05:53:58;;;;;;;;;;;;;;;11.91;57.48;100822.25;5026471;28;19913;-78
2022/05/31 05:56:24;;;;;;;;;;;;;;;11.89;56.81;100824.03;5012219;28;19928;-78
2022/05/31 05:58:49;;;;;;;;;;;;;;;11.96;57.04;100820.38;5018221;28;19955;-78
2022/05/31 06:01:24;;;;;;;;;;;;;;;12.01;57.72;100826.31;5021818;28;19929;-78
2022/05/31 06:04:08;;;;;;;;;;;;;;;11.88;57.33;100819.72;5020231;28;20314;-78
2022/05/31 06:06:35;;;;;;;;;;;;;;;11.93;57.29;100817.00;5028306;28;19924;-78
2022/05/31 06:09:02;;;;;;;;;;;;;;;11.89;56.70;100823.19;5039438;28;20340;-78
2022/05/31 06:11:49;;;;;;;;;;;;;;;12.00;57.07;100826.38;5034784;28;19943;-78
2022/05/31 06:14:21;;;;;;;;;;;;;;;12.19;56.83;100827.56;5028499;28;19972;-78
2022/05/31 06:16:50;;;;;;;;;;;;;;;12.16;56.31;100822.44;5026434;28;19921;-78
2022/05/31 06:19:21;;;;;;;;;;;;;;;12.01;56.82;100820.25;5024688;28;19921;-78
2022/05/31 06:21:48;;;;;;;;;;;;;;;12.11;57.03;100819.13;5025139;28;19948;-78
2022/05/31 06:24:13;;;;;;;;;;;;;;;12.22;56.74;100818.81;5029648;28;20363;-78
2022/05/31 06:26:39;;;;;;;;;;;;;;;12.11;57.38;100824.31;5027402;28;20032;-78
2022/05/31 06:29:05;;;;;;;;;;;;;;;12.20;57.73;100829.28;5027322;28;20001;-78
2022/05/31 06:31:30;;;;;;;;;;;;;;;12.19;57.60;100822.38;5027283;28;19971;-78
2022/05/31 06:33:55;;;;;;;;;;;;;;;12.11;57.13;100813.91;5028315;28;19921;-78
2022/05/31 06:36:20;;;;;;;;;;;;;;;12.12;57.30;100810.44;5038176;28;19928;-78
2022/05/31 06:38:46;;;;;;;;;;;;;;;12.13;58.00;100806.91;5034096;28;19975;-78
2022/05/31 06:41:12;;;;;;;;;;;;;;;12.07;57.47;100796.66;5032106;28;20461;-78
2022/05/31 06:43:38;;;;;;;;;;;;;;;12.18;57.29;100796.38;5021246;28;19921;-78
2022/05/31 06:46:04;;;;;;;;;;;;;;;12.40;56.12;100800.09;5035630;28;20370;-77
2022/05/31 06:48:30;;;;;;;;;;;;;;;12.38;56.29;100802.75;5030093;28;19928;-79
2022/05/31 06:50:55;;;;;;;;;;;;;;;12.37;56.96;100806.25;5028430;28;19921;-79
2022/05/31 06:58:48;;;;;;;;;;;;;;;12.38;56.67;100821.00;5028138;28;20298;-79
2022/05/31 07:01:15;;;;;;;;;;;;;;;12.47;56.30;100825.09;5028058;28;19917;-79
2022/05/31 07:03:40;;;;;;;;;;;;;;;12.50;55.59;100830.22;5020536;28;19982;-79
2022/05/31 07:06:05;;;;;;;;;;;;;;;12.56;55.58;100830.06;5025756;28;20468;-79
2022/05/31 07:08:31;;;;;;;;;;;;;;;12.49;55.26;100829.34;5034899;28;20016;-79
2022/05/31 07:10:57;;;;;;;;;;;;;;;12.58;54.36;100834.34;5024842;28;19933;-79
2022/05/31 07:13:22;;;;;;;;;;;;;;;12.74;54.34;100829.56;5027915;28;19917;-79
2022/05/31 07:15:50;;;;;;;;;;;;;;;12.75;53.43;100822.59;5026580;28;19925;-79
2022/05/31 07:18:16;;;;;;;;;;;;;;;12.68;54.28;100832.34;5018853;28;19917;-79
2022/05/31 07:20:44;;;;;;;;;;;;;;;12.68;54.80;100841.91;5027748;28;19921;-79
2022/05/31 07:23:09;;;;;;;;;;;;;;;12.73;54.92;100838.25;5019279;28;19922;-79
2022/05/31 07:25:34;;;;;;;;;;;;;;;12.77;54.21;100839.91;5026307;28;19921;-79
2022/05/31 07:28:00;;;;;;;;;;;;;;;12.77;54.29;100841.66;5027388;28;19928;-79
2022/05/31 07:30:25;;;;;;;;;;;;;;;12.68;55.32;100847.97;5033952;28;20338;-78
2022/05/31 07:32:52;;;;;;;;;;;;;;;12.70;55.03;100850.53;5032315;28;20054;-79
2022/05/31 07:35:18;;;;;;;;;;;;;;;12.75;55.06;100848.66;5028249;28;19921;-79
2022/05/31 07:37:43;;;;;;;;;;;;;;;12.79;55.14;100845.06;5027315;28;20015;-79
2022/05/31 07:40:09;;;;;;;;;;;;;;;12.72;54.81;100836.53;5027061;28;20024;-79
2022/05/31 07:42:34;;;;;;;;;;;;;;;12.69;54.41;100843.63;5019945;28;20418;-79
2022/05/31 07:44:59;;;;;;;;;;;;;;;12.74;55.93;100839.97;5026552;28;19918;-79
2022/05/31 07:47:25;;;;;;;;;;;;;;;12.63;55.49;100832.44;5018532;28;19936;-79
2022/05/31 07:49:51;;;;;;;;;;;;;;;12.74;55.98;100836.50;5054112;28;19933;-79
2022/05/31 07:52:16;;;;;;;;;;;;;;;12.77;55.86;100833.81;5028695;28;19921;-79
2022/05/31 07:54:41;;;;;;;;;;;;;;;12.85;55.18;100830.09;5029909;28;20008;-79
2022/05/31 07:57:07;;;;;;;;;;;;;;;12.85;55.69;100835.31;5047548;28;19912;-79
2022/05/31 07:59:33;;;;;;;;;;;;;;;12.86;55.52;100812.69;5044699;28;19967;-79
2022/05/31 08:01:58;;;;;;;;;;;;;;;12.88;56.11;100818.72;5046116;28;19929;-79
2022/05/31 08:04:24;;;;;;;;;;;;;;;12.85;55.89;100824.88;5023344;28;19929;-79
2022/05/31 08:06:51;;;;;;;;;;;;;;;12.85;55.25;100827.47;5022781;28;20008;-79
2022/05/31 08:09:16;;;;;;;;;;;;;;;12.86;55.91;100828.34;5026641;28;19931;-79
2022/05/31 08:11:41;;;;;;;;;;;;;;;12.90;56.00;100824.75;5027270;28;19943;-79
2022/05/31 08:14:07;;;;;;;;;;;;;;;12.94;56.14;100821.13;5027855;28;19917;-79
2022/05/31 08:16:34;;;;;;;;;;;;;;;12.92;56.74;100822.94;5038655;28;20357;-79
2022/05/31 08:19:00;;;;;;;;;;;;;;;12.89;57.34;100825.66;5029254;28;19925;-79
2022/05/31 08:21:28;;;;;;;;;;;;;;;12.97;57.25;100823.66;5035733;28;19917;-79
2022/05/31 08:23:59;;;;;;;;;;;;;;;12.87;57.29;100820.47;5043059;28;19961;-79
2022/05/31 08:26:24;;;;;;;;;;;;;;;12.86;56.80;100823.13;5031871;28;19932;-79
2022/05/31 08:28:49;;;;;;;;;;;;;;;12.90;56.42;100822.16;5041238;28;19925;-79
2022/05/31 08:31:17;;;;;;;;;;;;;;;12.86;55.80;100821.38;5035744;28;19921;-79
2022/05/31 08:33:42;;;;;;;;;;;;;;;12.89;56.37;100821.28;5034342;28;19917;-79
2022/05/31 08:36:08;;;;;;;;;;;;;;;12.91;57.35;100824.69;5035899;28;19932;-77
2022/05/31 08:38:33;;;;;;;;;;;;;;;12.87;56.52;100824.84;5037208;28;20751;-77
2022/05/31 08:41:01;;;;;;;;;;;;;;;12.90;56.58;100815.16;5028540;28;19936;-77
2022/05/31 08:44:02;;;;;;;;;;;;;;;12.92;57.38;100813.38;5024008;28;20326;-77
2022/05/31 08:46:31;;;;;;;;;;;;;;;12.94;56.41;100813.31;4968449;28;19965;-77
2022/05/31 08:48:58;;;;;;;;;;;;;;;12.97;56.18;100802.78;5003130;28;19924;-77
2022/05/31 08:57:08;;;;;;;;;;;;;;;13.06;55.63;100819.03;5022311;28;20078;-77
2022/05/31 08:59:41;;;;;;;;;;;;;;;13.12;55.37;100825.81;5027794;28;20306;-77
2022/05/31 09:02:29;;;;;;;;;;;;;;;13.12;55.47;100823.19;5028482;28;19929;-77
2022/05/31 09:04:59;;;;;;;;;;;;;;;13.13;55.86;100820.56;5012255;28;20980;-77
2022/05/31 09:07:31;;;;;;;;;;;;;;;13.03;55.35;100820.88;5030119;28;19925;-77
2022/05/31 09:10:26;;;;;;;;;;;;;;;13.01;55.46;100817.47;5025381;28;20020;-77
2022/05/31 09:12:57;;;;;;;;;;;;;;;12.94;55.81;100822.00;4994390;28;19944;-77
2022/05/31 09:15:31;;;;;;;;;;;;;;;12.92;56.32;100818.59;5035871;28;19913;-77
2022/05/31 09:18:07;;;;;;;;;;;;;;;13.00;57.83;100819.22;5034401;28;20267;-77
2022/05/31 09:20:37;;;;;;;;;;;;;;;13.05;57.64;100821.66;5031977;28;19925;-77
2022/05/31 09:23:03;;;;;;;;;;;;;;;13.06;58.63;100818.16;5030103;28;19921;-77
2022/05/31 09:25:32;;;;;;;;;;;;;;;13.14;58.42;100819.63;5034898;28;19925;-77
2022/05/31 09:28:03;;;;;;;;;;;;;;;13.26;59.00;100814.94;5030429;28;19921;-77
2022/05/31 09:30:41;;;;;;;;;;;;;;;13.23;59.28;100815.88;5043194;28;19929;-77
2022/05/31 09:33:09;;;;;;;;;;;;;;;13.33;57.38;100801.66;5025422;28;19925;-77
2022/05/31 09:35:53;;;;;;;;;;;;;;;13.34;57.39;100799.91;5013675;28;19925;-76
2022/05/31 09:38:28;;;;;;;;;;;;;;;13.39;57.52;100801.47;5022911;28;19921;-77
2022/05/31 09:41:06;;;;;;;;;;;;;;;13.50;57.91;100803.72;5028571;28;20007;-77
2022/05/31 09:43:40;;;;;;;;;;;;;;;13.58;58.15;100806.97;5055063;28;19928;-77
2022/05/31 09:46:08;;;;;;;;;;;;;;;13.56;56.65;100803.53;5024372;28;19963;-77
2022/05/31 09:48:33;;;;;;;;;;;;;;;13.59;56.82;100806.03;5031889;28;20013;-77
2022/05/31 09:51:23;;;;;;;;;;;;;;;13.61;56.95;100807.69;5073605;28;20019;-77
2022/05/31 09:59:22;;;;;;;;;;;;;;;13.67;56.00;100798.88;5031140;28;19975;-77
2022/05/31 10:01:47;;;;;;;;;;;;;;;13.76;56.77;100798.53;5039063;28;19936;-77
2022/05/31 10:04:19;;;;;;;;;;;;;;;13.73;56.67;100796.03;5034767;28;20355;-77
2022/05/31 10:06:57;;;;;;;;;;;;;;;13.74;56.58;100788.16;5034409;28;19925;-73
2022/05/31 10:09:36;;;;;;;;;;;;;;;13.76;56.32;100785.47;5026700;28;19918;-73
2022/05/31 10:12:12;;;;;;;;;;;;;;;13.70;55.42;100783.09;5034046;28;19914;-73
2022/05/31 10:14:40;;;;;;;;;;;;;;;13.74;55.02;100775.09;5028570;28;19925;-74
2022/05/31 10:17:25;;;;;;;;;;;;;;;13.77;56.28;100789.81;5026123;28;19971;-73
2022/05/31 10:20:04;;;;;;;;;;;;;;;13.63;55.63;100781.56;5065803;28;19932;-74
2022/05/31 10:22:30;;;;;;;;;;;;;;;13.64;54.72;100776.25;5034650;28;20003;-73
2022/05/31 10:24:55;;;;;;;;;;;;;;;13.69;55.00;100773.56;5054619;28;19936;-73
2022/05/31 10:27:28;;;;;;;;;;;;;;;13.68;55.07;100772.69;5035196;28;19925;-74
2022/05/31 10:29:57;;;;;;;;;;;;;;;13.74;54.84;100777.72;5033447;28;19920;-73
2022/05/31 10:32:24;;;;;;;;;;;;;;;13.85;54.57;100776.50;5040406;28;19956;-73
2022/05/31 10:35:04;;;;;;;;;;;;;;;13.90;54.33;100775.44;5030802;28;19960;-73
2022/05/31 10:37:32;;;;;;;;;;;;;;;13.95;53.99;100773.50;5040376;28;20382;-73
2022/05/31 10:40:09;;;;;;;;;;;;;;;14.00;54.00;100771.56;5034793;28;20352;-73
2022/05/31 10:42:38;;;;;;;;;;;;;;;14.07;53.86;100772.22;5023928;28;19991;-73
2022/05/31 10:45:05;;;;;;;;;;;;;;;14.12;54.23;100770.28;5020041;28;19986;-73
2022/05/31 10:47:30;;;;;;;;;;;;;;;14.10;54.80;100772.97;5010502;28;20405;-73
2022/05/31 10:49:56;;;;;;;;;;;;;;;14.16;54.91;100779.75;5021012;28;19961;-73
2022/05/31 10:52:24;;;;;;;;;;;;;;;14.14;55.57;100779.81;5028577;28;19925;-73
2022/05/31 10:54:49;;;;;;;;;;;;;;;14.21;56.40;100775.19;5040387;28;19921;-73
2022/05/31 10:57:18;;;;;;;;;;;;;;;14.17;55.99;100773.63;5017010;28;19954;-78
2022/05/31 10:59:49;;;;;;;;;;;;;;;14.18;55.69;100765.72;5028501;28;19941;-78
2022/05/31 11:02:33;;;;;;;;;;;;;;;14.21;54.83;100759.53;5039463;28;19921;-79
2022/05/31 11:05:01;;;;;;;;;;;;;;;14.18;53.26;100747.41;5027460;28;19917;-79
2022/05/31 11:11:28;;;;;;;;;;;;;;;14.18;51.56;100742.19;5037531;28;19936;-79
2022/05/31 11:13:24;;;;;;;;;;;;;;;14.23;52.38;100742.88;5028972;28;19951;-79
2022/05/31 11:15:55;;;;;;;;;;;;;;;14.27;53.78;100744.47;5033081;28;19987;-73
2022/05/31 11:18:35;;;;;;;;;;;;;;;14.29;54.57;100755.72;5033127;28;20394;-78
2022/05/31 11:21:17;;;;;;;;;;;;;;;14.29;54.43;100758.31;5038515;28;19928;-77
2022/05/31 11:23:45;;;;;;;;;;;;;;;14.32;54.98;100754.78;5036266;28;20022;-77
2022/05/31 11:26:29;;;;;;;;;;;;;;;14.40;54.26;100760.56;5031513;28;20290;-78
2022/05/31 11:29:00;;;;;;;;;;;;;;;14.43;54.29;100763.06;5036973;28;19954;-78
2022/05/31 11:31:25;;;;;;;;;;;;;;;14.40;53.10;100755.34;5034275;28;19921;-78
2022/05/31 11:33:54;;;;;;;;;;;;;;;14.43;54.47;100752.63;5031331;28;19921;-78
2022/05/31 11:36:27;;;;;;;;;;;;;;;14.47;54.60;100748.13;5029213;28;20330;-73
2022/05/31 11:38:58;;;;;;;;;;;;;;;14.47;54.33;100743.75;5035466;28;19913;-73
2022/05/31 11:41:33;;;;;;;;;;;;;;;14.50;56.00;100745.41;5034773;28;19925;-73
2022/05/31 11:44:17;;;;;;;;;;;;;;;14.53;54.79;100755.75;5024252;28;20333;-73
2022/05/31 11:46:49;;;;;;;;;;;;;;;14.52;54.33;100746.19;5025559;28;19921;-73
2022/05/31 11:49:24;;;;;;;;;;;;;;;14.57;54.87;100747.72;5019976;28;19936;-73
2022/05/31 11:51:55;;;;;;;;;;;;;;;14.55;54.44;100743.47;5033183;28;19924;-74
2022/05/31 11:54:21;;;;;;;;;;;;;;;14.53;54.73;100753.13;5035446;28;20016;-73
2022/05/31 11:57:05;;;;;;;;;;;;;;;14.51;53.96;100752.31;5033954;28;20012;-73
2022/05/31 11:59:30;;;;;;;;;;;;;;;14.55;54.90;100757.38;5031559;28;19998;-73
2022/05/31 12:01:56;;;;;;;;;;;;;;;14.57;55.35;100755.56;5032023;28;19964;-73
2022/05/31 12:04:27;;;;;;;;;;;;;;;14.57;53.96;100757.31;5028140;28;19972;-77
2022/05/31 12:07:08;;;;;;;;;;;;;;;14.60;54.14;100758.06;5026949;28;19924;-76
2022/05/31 12:09:46;;;;;;;;;;;;;;;14.70;54.79;100761.19;5024843;28;19943;-79
2022/05/31 12:12:30;;;;;;;;;;;;;;;14.67;54.71;100754.31;5027519;28;19974;-79
2022/05/31 12:14:59;;;;;;;;;;;;;;;14.64;53.70;100743.97;5030805;28;19921;-79
2022/05/31 12:18:01;;;;;;;;;;;;;;;14.61;53.06;100746.72;5041806;28;19925;-79
2022/05/31 12:20:45;;;;;;;;;;;;;;;14.61;54.09;100744.09;4966030;28;20482;-73
2022/05/31 12:23:16;;;;;;;;;;;;;;;14.63;53.83;100747.50;5025518;28;19967;-73
2022/05/31 12:25:50;;;;;;;;;;;;;;;14.67;53.76;100749.09;5038007;28;19968;-73
2022/05/31 12:28:22;;;;;;;;;;;;;;;14.66;53.22;100752.59;5037489;28;19921;-74
2022/05/31 12:31:09;;;;;;;;;;;;;;;14.68;52.33;100745.53;5040021;28;19932;-73
2022/05/31 12:33:43;;;;;;;;;;;;;;;14.68;51.64;100742.09;5034985;28;19921;-74
2022/05/31 12:36:09;;;;;;;;;;;;;;;14.71;52.53;100741.97;5037981;28;20576;-73
2022/05/31 12:39:02;;;;;;;;;;;;;;;14.79;51.11;100743.41;5030057;28;19991;-73
2022/05/31 12:41:32;;;;;;;;;;;;;;;14.84;51.30;100746.69;5027236;28;19917;-73
2022/05/31 12:43:58;;;;;;;;;;;;;;;14.87;50.29;100741.34;5022479;28;19933;-73
2022/05/31 12:46:35;;;;;;;;;;;;;;;14.96;50.88;100741.91;5017791;28;19924;-73
2022/05/31 12:49:03;;;;;;;;;;;;;;;14.98;52.46;100743.53;5019789;28;19928;-79
2022/05/31 12:51:29;;;;;;;;;;;;;;;15.03;51.73;100732.91;5026916;28;19972;-79
2022/05/31 12:53:56;;;;;;;;;;;;;;;15.06;51.80;100732.78;5027428;28;19971;-79
2022/05/31 12:56:30;;;;;;;;;;;;;;;15.03;50.83;100733.75;5016158;28;19971;-79
2022/05/31 12:58:57;;;;;;;;;;;;;;;15.15;52.23;100732.41;5027564;28;19921;-77
2022/05/31 13:01:22;;;;;;;;;;;;;;;15.20;51.04;100730.47;5027931;28;19921;-78
2022/05/31 13:03:53;;;;;;;;;;;;;;;15.15;51.19;100728.03;5026135;28;19925;-78
2022/05/31 13:06:33;;;;;;;;;;;;;;;15.24;51.84;100721.59;5025249;28;19917;-73
2022/05/31 13:09:00;;;;;;;;;;;;;;;15.24;48.03;100716.34;5030701;28;19917;-73
2022/05/31 13:19:45;;;;;;;;;;;;;;;15.13;53.40;100718.53;5030201;28;19947;-73
2022/05/31 13:22:12;;;;;;;;;;;;;;;15.16;48.16;100714.03;5044759;28;19917;-74